sensor_id;sensor_type;location;lat;lon;timestamp;pressure;altitude;pressure_sealevel;temperature;humidity
46876;BME280;32866;50.160;14.768;2022-12-05T00:00:11;99306.00;;;4.44;100.00
46876;BME280;32866;50.160;14.768;2022-12-05T00:02:36;99340.72;;;4.71;100.00
46876;BME280;32866;50.160;14.768;2022-12-05T00:05:02;99338.81;;;4.68;100.00
46876;BME280;32866;50.160;14.768;2022-12-05T00:07:28;99327.97;;;4.64;100.00
46876;BME280;32866;50.160;14.768;2022-12-05T00:09:53;99334.91;;;4.69;100.00
46876;BME280;32866;50.160;14.768;2022-12-05T00:12:19;99293.22;;;4.45;100.00
46876;BME280;32866;50.160;14.768;2022-12-05T00:14:44;99338.00;;;4.71;100.00
46876;BME280;32866;50.160;14.768;2022-12-05T00:17:10;99316.69;;;4.70;100.00
46876;BME280;32866;50.160;14.768;2022-12-05T00:19:35;99327.19;;;4.68;100.00
46876;BME280;32866;50.160;14.768;2022-12-05T00:22:01;99296.25;;;4.51;100.00
46876;BME280;32866;50.160;14.768;2022-12-05T00:24:26;99334.03;;;4.83;100.00
46876;BME280;32866;50.160;14.768;2022-12-05T00:26:51;99294.69;;;4.53;100.00
46876;BME280;32866;50.160;14.768;2022-12-05T00:29:17;99330.66;;;4.68;100.00
46876;BME280;32866;50.160;14.768;2022-12-05T00:31:42;99327.56;;;4.66;100.00
46876;BME280;32866;50.160;14.768;2022-12-05T00:34:08;99293.19;;;4.49;100.00
46876;BME280;32866;50.160;14.768;2022-12-05T00:36:34;99338.75;;;4.75;100.00
46876;BME280;32866;50.160;14.768;2022-12-05T00:39:07;99329.47;;;4.69;100.00
46876;BME280;32866;50.160;14.768;2022-12-05T00:41:33;99337.22;;;4.74;100.00
46876;BME280;32866;50.160;14.768;2022-12-05T00:44:00;99343.38;;;4.78;100.00
46876;BME280;32866;50.160;14.768;2022-12-05T00:46:27;99339.50;;;4.79;100.00
46876;BME280;32866;50.160;14.768;2022-12-05T00:48:54;99312.91;;;4.56;100.00
46876;BME280;32866;50.160;14.768;2022-12-05T00:51:26;99346.09;;;4.78;100.00
46876;BME280;32866;50.160;14.768;2022-12-05T00:53:52;99347.25;;;4.77;100.00
46876;BME280;32866;50.160;14.768;2022-12-05T00:56:21;99351.94;;;4.73;100.00
46876;BME280;32866;50.160;14.768;2022-12-05T00:58:49;99336.41;;;4.77;100.00
46876;BME280;32866;50.160;14.768;2022-12-05T01:01:17;99334.84;;;4.80;100.00
46876;BME280;32866;50.160;14.768;2022-12-05T01:03:44;99342.66;;;4.74;100.00
46876;BME280;32866;50.160;14.768;2022-12-05T01:06:11;99329.13;;;4.63;100.00
46876;BME280;32866;50.160;14.768;2022-12-05T01:08:36;99343.03;;;4.73;100.00
46876;BME280;32866;50.160;14.768;2022-12-05T01:11:03;99331.88;;;4.60;100.00
46876;BME280;32866;50.160;14.768;2022-12-05T01:13:29;99340.34;;;4.69;100.00
46876;BME280;32866;50.160;14.768;2022-12-05T01:15:54;99329.13;;;4.63;100.00
46876;BME280;32866;50.160;14.768;2022-12-05T01:18:20;99333.44;;;4.57;100.00
46876;BME280;32866;50.160;14.768;2022-12-05T01:20:47;99338.78;;;4.72;100.00
46876;BME280;32866;50.160;14.768;2022-12-05T01:23:12;99338.00;;;4.71;100.00
46876;BME280;32866;50.160;14.768;2022-12-05T01:25:39;99338.03;;;4.68;100.00
46876;BME280;32866;50.160;14.768;2022-12-05T01:28:05;99341.53;;;4.64;100.00
46876;BME280;32866;50.160;14.768;2022-12-05T01:30:31;99343.03;;;4.69;100.00
46876;BME280;32866;50.160;14.768;2022-12-05T01:32:58;99329.91;;;4.68;100.00
46876;BME280;32866;50.160;14.768;2022-12-05T01:35:23;99334.91;;;4.73;100.00
46876;BME280;32866;50.160;14.768;2022-12-05T01:37:50;99302.13;;;4.49;100.00
46876;BME280;32866;50.160;14.768;2022-12-05T01:40:15;99333.75;;;4.70;100.00
46876;BME280;32866;50.160;14.768;2022-12-05T01:42:40;99331.81;;;4.67;100.00
46876;BME280;32866;50.160;14.768;2022-12-05T01:45:13;99334.91;;;4.73;100.00
46876;BME280;32866;50.160;14.768;2022-12-05T01:47:39;99350.41;;;4.72;100.00
46876;BME280;32866;50.160;14.768;2022-12-05T01:50:05;99345.75;;;4.69;100.00
46876;BME280;32866;50.160;14.768;2022-12-05T01:52:30;99346.94;;;4.68;100.00
46876;BME280;32866;50.160;14.768;2022-12-05T01:55:02;99342.31;;;4.65;100.00
46876;BME280;32866;50.160;14.768;2022-12-05T01:57:29;99347.38;;;4.63;100.00
46876;BME280;32866;50.160;14.768;2022-12-05T01:59:59;99335.00;;;4.58;100.00
46876;BME280;32866;50.160;14.768;2022-12-05T02:02:27;99311.06;;;4.42;100.00
46876;BME280;32866;50.160;14.768;2022-12-05T02:05:06;99347.38;;;4.63;100.00
46876;BME280;32866;50.160;14.768;2022-12-05T02:07:35;99342.75;;;4.56;100.00
46876;BME280;32866;50.160;14.768;2022-12-05T02:10:02;99354.75;;;4.59;100.00
46876;BME280;32866;50.160;14.768;2022-12-05T02:12:28;99336.53;;;4.59;100.00
46876;BME280;32866;50.160;14.768;2022-12-05T02:15:24;99344.28;;;4.57;100.00
46876;BME280;32866;50.160;14.768;2022-12-05T02:18:05;99343.91;;;4.59;100.00
46876;BME280;32866;50.160;14.768;2022-12-05T02:27:30;99354.78;;;4.55;100.00
46876;BME280;32866;50.160;14.768;2022-12-05T02:30:06;99364.47;;;4.56;100.00
46876;BME280;32866;50.160;14.768;2022-12-05T02:32:54;99366.03;;;4.54;100.00
46876;BME280;32866;50.160;14.768;2022-12-05T02:43:31;99348.25;;;4.45;100.00
46876;BME280;32866;50.160;14.768;2022-12-05T02:46:03;99358.28;;;4.52;100.00
46876;BME280;32866;50.160;14.768;2022-12-05T02:48:31;99344.31;;;4.54;100.00
46876;BME280;32866;50.160;14.768;2022-12-05T02:50:59;99355.16;;;4.57;100.00
46876;BME280;32866;50.160;14.768;2022-12-05T02:53:27;99361.41;;;4.54;100.00
46876;BME280;32866;50.160;14.768;2022-12-05T02:55:55;99324.34;;;4.26;100.00
46876;BME280;32866;50.160;14.768;2022-12-05T02:58:26;99357.50;;;4.52;100.00
46876;BME280;32866;50.160;14.768;2022-12-05T03:00:56;99322.41;;;4.23;100.00
46876;BME280;32866;50.160;14.768;2022-12-05T03:03:22;99340.59;;;4.30;100.00
46876;BME280;32866;50.160;14.768;2022-12-05T03:06:01;99372.66;;;4.45;100.00
46876;BME280;32866;50.160;14.768;2022-12-05T03:08:32;99366.06;;;4.50;100.00
46876;BME280;32866;50.160;14.768;2022-12-05T03:11:01;99368.38;;;4.52;100.00
46876;BME280;32866;50.160;14.768;2022-12-05T03:13:33;99384.72;;;4.44;100.00
46876;BME280;32866;50.160;14.768;2022-12-05T03:16:05;99367.63;;;4.48;100.00
46876;BME280;32866;50.160;14.768;2022-12-05T03:18:36;99364.53;;;4.49;100.00
46876;BME280;32866;50.160;14.768;2022-12-05T03:21:12;99340.63;;;4.26;100.00
46876;BME280;32866;50.160;14.768;2022-12-05T03:23:47;99346.03;;;4.26;100.00
46876;BME280;32866;50.160;14.768;2022-12-05T03:34:48;99367.66;;;4.40;100.00
46876;BME280;32866;50.160;14.768;2022-12-05T03:38:05;99373.50;;;4.35;100.00
46876;BME280;32866;50.160;14.768;2022-12-05T03:43:07;99370.75;;;4.39;100.00
46876;BME280;32866;50.160;14.768;2022-12-05T03:50:57;99349.59;;;4.16;100.00
46876;BME280;32866;50.160;14.768;2022-12-05T03:53:31;99376.22;;;4.35;100.00
46876;BME280;32866;50.160;14.768;2022-12-05T03:56:06;99345.34;;;4.11;100.00
46876;BME280;32866;50.160;14.768;2022-12-05T03:58:37;99337.59;;;4.09;100.00
46876;BME280;32866;50.160;14.768;2022-12-05T04:01:04;99376.22;;;4.35;100.00
46876;BME280;32866;50.160;14.768;2022-12-05T04:03:39;99357.31;;;4.21;100.00
46876;BME280;32866;50.160;14.768;2022-12-05T04:06:19;99351.88;;;4.21;100.00
46876;BME280;32866;50.160;14.768;2022-12-05T04:08:51;99374.22;;;4.46;100.00
46876;BME280;32866;50.160;14.768;2022-12-05T04:11:22;99370.34;;;4.44;100.00
46876;BME280;32866;50.160;14.768;2022-12-05T04:13:52;99341.03;;;4.21;100.00
46876;BME280;32866;50.160;14.768;2022-12-05T04:16:27;99371.13;;;4.44;100.00
46876;BME280;32866;50.160;14.768;2022-12-05T04:19:21;99373.81;;;4.48;100.00
46876;BME280;32866;50.160;14.768;2022-12-05T04:21:53;99372.25;;;4.54;100.00
46876;BME280;32866;50.160;14.768;2022-12-05T04:24:27;99376.50;;;4.52;100.00
46876;BME280;32866;50.160;14.768;2022-12-05T04:30:20;99374.63;;;4.41;100.00
46876;BME280;32866;50.160;14.768;2022-12-05T04:35:49;99358.06;;;4.25;100.00
46876;BME280;32866;50.160;14.768;2022-12-05T04:38:23;99382.00;;;4.37;100.00
46876;BME280;32866;50.160;14.768;2022-12-05T04:41:00;99363.06;;;4.30;100.00
46876;BME280;32866;50.160;14.768;2022-12-05T04:43:28;99353.81;;;4.20;100.00
46876;BME280;32866;50.160;14.768;2022-12-05T04:45:56;99371.56;;;4.39;100.00
46876;BME280;32866;50.160;14.768;2022-12-05T04:48:25;99387.06;;;4.35;100.00
46876;BME280;32866;50.160;14.768;2022-12-05T04:50:54;99367.81;;;4.12;100.00
46876;BME280;32866;50.160;14.768;2022-12-05T04:53:21;99377.78;;;4.36;100.00
46876;BME280;32866;50.160;14.768;2022-12-05T04:55:49;99382.44;;;4.28;100.00
46876;BME280;32866;50.160;14.768;2022-12-05T04:58:19;99402.59;;;4.31;100.00
46876;BME280;32866;50.160;14.768;2022-12-05T05:03:27;99379.75;;;4.25;100.00
46876;BME280;32866;50.160;14.768;2022-12-05T05:05:55;99384.72;;;4.37;100.00
46876;BME280;32866;50.160;14.768;2022-12-05T05:08:26;99372.38;;;4.29;100.00
46876;BME280;32866;50.160;14.768;2022-12-05T05:11:03;99397.53;;;4.37;100.00
46876;BME280;32866;50.160;14.768;2022-12-05T05:13:30;99408.78;;;4.35;100.00
46876;BME280;32866;50.160;14.768;2022-12-05T05:15:56;99383.25;;;4.29;100.00
46876;BME280;32866;50.160;14.768;2022-12-05T05:18:21;99360.44;;;4.12;100.00
46876;BME280;32866;50.160;14.768;2022-12-05T05:20:46;99376.22;;;4.35;100.00
46876;BME280;32866;50.160;14.768;2022-12-05T05:23:12;99383.19;;;4.36;100.00
46876;BME280;32866;50.160;14.768;2022-12-05T05:25:38;99385.22;;;4.18;100.00
46876;BME280;32866;50.160;14.768;2022-12-05T05:28:04;99400.25;;;4.37;100.00
46876;BME280;32866;50.160;14.768;2022-12-05T05:30:29;99399.88;;;4.35;100.00
46876;BME280;32866;50.160;14.768;2022-12-05T05:32:55;99362.38;;;4.12;100.00
46876;BME280;32866;50.160;14.768;2022-12-05T05:35:20;99410.75;;;4.31;100.00
46876;BME280;32866;50.160;14.768;2022-12-05T05:37:46;99414.19;;;4.35;100.00
46876;BME280;32866;50.160;14.768;2022-12-05T05:40:13;99405.72;;;4.26;100.00
46876;BME280;32866;50.160;14.768;2022-12-05T05:42:45;99423.56;;;4.23;100.00
46876;BME280;32866;50.160;14.768;2022-12-05T05:45:12;99413.47;;;4.24;100.00
46876;BME280;32866;50.160;14.768;2022-12-05T05:47:38;99424.31;;;4.24;100.00
46876;BME280;32866;50.160;14.768;2022-12-05T05:50:05;99432.13;;;4.11;100.00
46876;BME280;32866;50.160;14.768;2022-12-05T05:52:35;99438.69;;;4.14;100.00
46876;BME280;32866;50.160;14.768;2022-12-05T05:55:02;99441.81;;;4.16;100.00
46876;BME280;32866;50.160;14.768;2022-12-05T05:57:29;99442.22;;;4.11;100.00
46876;BME280;32866;50.160;14.768;2022-12-05T05:59:55;99446.88;;;4.03;100.00
46876;BME280;32866;50.160;14.768;2022-12-05T06:02:20;99437.59;;;4.04;100.00
46876;BME280;32866;50.160;14.768;2022-12-05T06:04:46;99417.84;;;3.85;100.00
46876;BME280;32866;50.160;14.768;2022-12-05T06:07:11;99429.88;;;3.84;100.00
46876;BME280;32866;50.160;14.768;2022-12-05T06:09:37;99456.91;;;4.13;100.00
46876;BME280;32866;50.160;14.768;2022-12-05T06:12:02;99455.00;;;4.06;100.00
46876;BME280;32866;50.160;14.768;2022-12-05T06:14:27;99448.00;;;4.05;100.00
46876;BME280;32866;50.160;14.768;2022-12-05T06:16:53;99417.50;;;3.76;100.00
46876;BME280;32866;50.160;14.768;2022-12-05T06:19:18;99423.66;;;3.91;100.00
46876;BME280;32866;50.160;14.768;2022-12-05T06:21:44;99430.59;;;4.03;100.00
46876;BME280;32866;50.160;14.768;2022-12-05T06:24:09;99448.38;;;4.15;100.00
46876;BME280;32866;50.160;14.768;2022-12-05T06:26:34;99462.31;;;4.20;100.00
46876;BME280;32866;50.160;14.768;2022-12-05T06:29:00;99450.25;;;4.32;100.00
46876;BME280;32866;50.160;14.768;2022-12-05T06:31:26;99452.22;;;4.24;100.00
46876;BME280;32866;50.160;14.768;2022-12-05T06:33:55;99478.56;;;4.24;100.00
46876;BME280;32866;50.160;14.768;2022-12-05T06:36:21;99464.66;;;4.18;100.00
46876;BME280;32866;50.160;14.768;2022-12-05T06:38:46;99453.09;;;3.96;100.00
46876;BME280;32866;50.160;14.768;2022-12-05T06:41:17;99474.78;;;3.96;100.00
46876;BME280;32866;50.160;14.768;2022-12-05T06:43:42;99443.06;;;3.71;100.00
46876;BME280;32866;50.160;14.768;2022-12-05T06:46:09;99473.22;;;4.02;100.00
46876;BME280;32866;50.160;14.768;2022-12-05T06:48:35;99475.16;;;4.02;100.00
46876;BME280;32866;50.160;14.768;2022-12-05T06:51:01;99463.16;;;3.92;100.00
46876;BME280;32866;50.160;14.768;2022-12-05T06:53:26;99483.66;;;4.00;100.00
46876;BME280;32866;50.160;14.768;2022-12-05T06:56:00;99487.50;;;4.14;100.00
46876;BME280;32866;50.160;14.768;2022-12-05T06:58:27;99483.63;;;4.22;100.00
46876;BME280;32866;50.160;14.768;2022-12-05T07:00:53;99492.88;;;4.35;100.00
46876;BME280;32866;50.160;14.768;2022-12-05T07:03:37;99500.66;;;4.33;100.00
46876;BME280;32866;50.160;14.768;2022-12-05T07:06:04;99492.13;;;4.31;100.00
46876;BME280;32866;50.160;14.768;2022-12-05T07:08:30;99486.72;;;4.24;100.00
46876;BME280;32866;50.160;14.768;2022-12-05T07:10:56;99492.53;;;4.26;100.00
46876;BME280;32866;50.160;14.768;2022-12-05T07:13:21;99501.81;;;4.39;100.00
46876;BME280;32866;50.160;14.768;2022-12-05T07:15:47;99492.94;;;4.17;100.00
46876;BME280;32866;50.160;14.768;2022-12-05T07:18:14;99501.88;;;4.14;100.00
46876;BME280;32866;50.160;14.768;2022-12-05T07:20:40;99508.47;;;4.06;100.00
46876;BME280;32866;50.160;14.768;2022-12-05T07:23:06;99497.63;;;4.02;100.00
46876;BME280;32866;50.160;14.768;2022-12-05T07:25:31;99512.72;;;4.14;100.00
46876;BME280;32866;50.160;14.768;2022-12-05T07:27:56;99514.66;;;4.06;100.00
46876;BME280;32866;50.160;14.768;2022-12-05T07:30:22;99494.94;;;3.88;100.00
46876;BME280;32866;50.160;14.768;2022-12-05T07:32:47;99490.25;;;3.92;100.00
46876;BME280;32866;50.160;14.768;2022-12-05T07:35:12;99505.72;;;4.17;100.00
46876;BME280;32866;50.160;14.768;2022-12-05T07:37:38;99520.06;;;4.14;100.00
46876;BME280;32866;50.160;14.768;2022-12-05T07:40:04;99518.88;;;4.22;100.00
46876;BME280;32866;50.160;14.768;2022-12-05T07:42:29;99524.34;;;4.15;100.00
46876;BME280;32866;50.160;14.768;2022-12-05T07:44:54;99503.47;;;3.79;100.00
46876;BME280;32866;50.160;14.768;2022-12-05T07:47:20;99492.59;;;3.90;100.00
46876;BME280;32866;50.160;14.768;2022-12-05T07:49:45;99520.47;;;4.08;100.00
46876;BME280;32866;50.160;14.768;2022-12-05T07:52:10;99521.22;;;4.05;100.00
46876;BME280;32866;50.160;14.768;2022-12-05T07:54:36;99526.63;;;4.27;100.00
46876;BME280;32866;50.160;14.768;2022-12-05T07:57:01;99506.56;;;3.96;100.00
46876;BME280;32866;50.160;14.768;2022-12-05T07:59:26;99515.03;;;4.05;100.00
46876;BME280;32866;50.160;14.768;2022-12-05T08:01:52;99509.59;;;4.23;100.00
46876;BME280;32866;50.160;14.768;2022-12-05T08:04:17;99509.66;;;3.98;100.00
46876;BME280;32866;50.160;14.768;2022-12-05T08:06:42;99506.16;;;4.04;100.00
46876;BME280;32866;50.160;14.768;2022-12-05T08:09:08;99531.25;;;4.34;100.00
46876;BME280;32866;50.160;14.768;2022-12-05T08:11:33;99533.97;;;4.37;100.00
46876;BME280;32866;50.160;14.768;2022-12-05T08:14:00;99545.19;;;4.46;100.00
46876;BME280;32866;50.160;14.768;2022-12-05T08:16:28;99551.38;;;4.51;100.00
46876;BME280;32866;50.160;14.768;2022-12-05T08:19:01;99559.09;;;4.56;100.00
46876;BME280;32866;50.160;14.768;2022-12-05T08:21:27;99555.66;;;4.37;100.00
46876;BME280;32866;50.160;14.768;2022-12-05T08:23:53;99559.94;;;4.35;100.00
46876;BME280;32866;50.160;14.768;2022-12-05T08:26:27;99564.22;;;4.25;100.00
46876;BME280;32866;50.160;14.768;2022-12-05T08:28:56;99576.22;;;4.24;100.00
46876;BME280;32866;50.160;14.768;2022-12-05T08:31:23;99564.25;;;4.11;100.00
46876;BME280;32866;50.160;14.768;2022-12-05T08:33:50;99581.69;;;4.27;100.00
46876;BME280;32866;50.160;14.768;2022-12-05T08:36:16;99573.16;;;4.11;100.00
46876;BME280;32866;50.160;14.768;2022-12-05T08:38:43;99564.25;;;4.07;100.00
46876;BME280;32866;50.160;14.768;2022-12-05T08:41:10;99589.34;;;4.61;100.00
46876;BME280;32866;50.160;14.768;2022-12-05T08:43:36;99594.78;;;4.61;100.00
46876;BME280;32866;50.160;14.768;2022-12-05T08:46:03;99595.56;;;4.55;100.00
46876;BME280;32866;50.160;14.768;2022-12-05T08:48:28;99603.31;;;4.56;100.00
46876;BME280;32866;50.160;14.768;2022-12-05T08:50:54;99601.75;;;4.59;100.00
46876;BME280;32866;50.160;14.768;2022-12-05T08:53:20;99572.72;;;4.31;100.00
46876;BME280;32866;50.160;14.768;2022-12-05T08:55:46;99590.56;;;4.42;100.00
46876;BME280;32866;50.160;14.768;2022-12-05T08:58:11;99602.53;;;4.56;100.00
46876;BME280;32866;50.160;14.768;2022-12-05T09:00:37;99607.22;;;4.48;100.00
46876;BME280;32866;50.160;14.768;2022-12-05T09:03:03;99597.91;;;4.42;100.00
46876;BME280;32866;50.160;14.768;2022-12-05T09:05:28;99604.09;;;4.53;100.00
46876;BME280;32866;50.160;14.768;2022-12-05T09:07:54;99583.59;;;4.34;100.00
46876;BME280;32866;50.160;14.768;2022-12-05T09:10:19;99611.88;;;4.48;100.00
46876;BME280;32866;50.160;14.768;2022-12-05T09:12:45;99616.50;;;4.51;100.00
46876;BME280;32866;50.160;14.768;2022-12-05T09:15:11;99609.94;;;4.44;100.00
46876;BME280;32866;50.160;14.768;2022-12-05T09:17:37;99597.16;;;4.23;100.00
46876;BME280;32866;50.160;14.768;2022-12-05T09:20:03;99630.47;;;4.45;100.00
46876;BME280;32866;50.160;14.768;2022-12-05T09:22:29;99608.78;;;4.35;100.00
46876;BME280;32866;50.160;14.768;2022-12-05T09:24:54;99608.03;;;4.34;100.00
46876;BME280;32866;50.160;14.768;2022-12-05T09:27:20;99611.88;;;4.48;100.00
46876;BME280;32866;50.160;14.768;2022-12-05T09:29:45;99628.13;;;4.44;100.00
46876;BME280;32866;50.160;14.768;2022-12-05T09:32:10;99592.91;;;4.19;100.00
46876;BME280;32866;50.160;14.768;2022-12-05T09:34:36;99595.63;;;4.26;100.00
46876;BME280;32866;50.160;14.768;2022-12-05T09:37:06;99628.91;;;4.59;100.00
46876;BME280;32866;50.160;14.768;2022-12-05T09:39:31;99600.63;;;4.42;100.00
46876;BME280;32866;50.160;14.768;2022-12-05T09:45:04;99616.44;;;4.76;100.00
46876;BME280;32866;50.160;14.768;2022-12-05T09:47:54;99627.72;;;4.67;100.00
46876;BME280;32866;50.160;14.768;2022-12-05T09:53:08;99639.72;;;4.73;100.00
46876;BME280;32866;50.160;14.768;2022-12-05T10:01:03;99611.47;;;4.42;100.00
46876;BME280;32866;50.160;14.768;2022-12-05T10:03:41;99618.09;;;4.44;100.00
46876;BME280;32866;50.160;14.768;2022-12-05T10:11:17;99632.81;;;4.40;100.00
46876;BME280;32866;50.160;14.768;2022-12-05T10:14:08;99632.78;;;4.58;100.00
46876;BME280;32866;50.160;14.768;2022-12-05T10:16:50;99637.84;;;4.49;100.00
46876;BME280;32866;50.160;14.768;2022-12-05T10:19:33;99633.53;;;4.62;100.00
46876;BME280;32866;50.160;14.768;2022-12-05T10:22:18;99603.34;;;4.38;100.00
46876;BME280;32866;50.160;14.768;2022-12-05T10:24:59;99628.53;;;4.50;100.00
46876;BME280;32866;50.160;14.768;2022-12-05T10:27:35;99624.63;;;4.51;100.00
46876;BME280;32866;50.160;14.768;2022-12-05T10:30:14;99625.00;;;4.63;100.00
46876;BME280;32866;50.160;14.768;2022-12-05T10:33:00;99607.59;;;4.50;100.00
46876;BME280;32866;50.160;14.768;2022-12-05T10:35:32;99638.56;;;4.67;100.00
46876;BME280;32866;50.160;14.768;2022-12-05T10:38:01;99626.16;;;4.77;100.00
46876;BME280;32866;50.160;14.768;2022-12-05T10:40:54;99627.72;;;4.63;100.00
46876;BME280;32866;50.160;14.768;2022-12-05T10:43:27;99631.59;;;4.73;100.00
46876;BME280;32866;50.160;14.768;2022-12-05T10:45:53;99627.28;;;4.87;100.00
46876;BME280;32866;50.160;14.768;2022-12-05T10:48:20;99617.22;;;4.80;100.00
46876;BME280;32866;50.160;14.768;2022-12-05T10:50:48;99612.19;;;4.75;100.00
46876;BME280;32866;50.160;14.768;2022-12-05T10:53:17;99616.84;;;4.78;100.00
46876;BME280;32866;50.160;14.768;2022-12-05T10:55:45;99588.56;;;4.68;100.00
46876;BME280;32866;50.160;14.768;2022-12-05T10:58:18;99615.56;;;5.04;100.00
46876;BME280;32866;50.160;14.768;2022-12-05T11:00:48;99613.22;;;5.10;100.00
46876;BME280;32866;50.160;14.768;2022-12-05T11:03:34;99616.31;;;5.15;100.00
46876;BME280;32866;50.160;14.768;2022-12-05T11:06:20;99621.00;;;5.11;100.00
46876;BME280;32866;50.160;14.768;2022-12-05T11:08:53;99604.78;;;4.86;100.00
46876;BME280;32866;50.160;14.768;2022-12-05T11:11:22;99612.53;;;4.91;100.00
46876;BME280;32866;50.160;14.768;2022-12-05T11:14:19;99606.31;;;4.91;100.00
46876;BME280;32866;50.160;14.768;2022-12-05T11:16:51;99601.25;;;4.89;100.00
46876;BME280;32866;50.160;14.768;2022-12-05T11:19:36;99608.63;;;4.96;100.00
46876;BME280;32866;50.160;14.768;2022-12-05T11:22:04;99583.88;;;4.72;100.00
46876;BME280;32866;50.160;14.768;2022-12-05T11:24:35;99597.78;;;4.89;100.00
46876;BME280;32866;50.160;14.768;2022-12-05T11:29:42;99600.09;;;4.94;100.00
46876;BME280;32866;50.160;14.768;2022-12-05T11:32:29;99597.34;;;4.97;100.00
46876;BME280;32866;50.160;14.768;2022-12-05T11:35:00;99594.28;;;4.92;100.00
46876;BME280;32866;50.160;14.768;2022-12-05T11:37:34;99595.44;;;4.91;100.00
46876;BME280;32866;50.160;14.768;2022-12-05T11:40:17;99583.75;;;5.05;100.00
46876;BME280;32866;50.160;14.768;2022-12-05T11:42:58;99585.25;;;5.16;100.00
46876;BME280;32866;50.160;14.768;2022-12-05T11:46:08;99587.50;;;5.29;100.00
46876;BME280;32866;50.160;14.768;2022-12-05T11:51:28;99581.25;;;5.35;100.00
46876;BME280;32866;50.160;14.768;2022-12-05T11:56:46;99569.50;;;5.56;100.00
46876;BME280;32866;50.160;14.768;2022-12-05T11:59:24;99586.66;;;5.39;100.00
46876;BME280;32866;50.160;14.768;2022-12-05T12:05:21;99567.31;;;5.33;100.00
46876;BME280;32866;50.160;14.768;2022-12-05T12:08:08;99545.34;;;5.06;100.00
46876;BME280;32866;50.160;14.768;2022-12-05T12:10:47;99560.50;;;5.00;100.00
46876;BME280;32866;50.160;14.768;2022-12-05T12:27:08;99569.53;;;5.49;100.00
46876;BME280;32866;50.160;14.768;2022-12-05T12:33:07;99571.88;;;5.47;100.00
46876;BME280;32866;50.160;14.768;2022-12-05T12:35:55;99571.13;;;5.43;100.00
46876;BME280;32866;50.160;14.768;2022-12-05T12:44:05;99544.94;;;5.11;100.00
46876;BME280;32866;50.160;14.768;2022-12-05T12:52:12;99584.91;;;5.07;100.00
46876;BME280;32866;50.160;14.768;2022-12-05T12:55:06;99572.88;;;5.01;100.00
46876;BME280;32866;50.160;14.768;2022-12-05T13:03:11;99578.22;;;5.23;100.00
46876;BME280;32866;50.160;14.768;2022-12-05T13:05:47;99579.44;;;5.11;100.00
46876;BME280;32866;50.160;14.768;2022-12-05T13:08:29;99579.06;;;5.09;100.00
46876;BME280;32866;50.160;14.768;2022-12-05T13:10:59;99582.63;;;4.95;100.00
46876;BME280;32866;50.160;14.768;2022-12-05T13:13:33;99589.94;;;5.09;100.00
46876;BME280;32866;50.160;14.768;2022-12-05T13:16:02;99575.97;;;5.10;100.00
46876;BME280;32866;50.160;14.768;2022-12-05T13:18:30;99579.47;;;5.07;100.00
46876;BME280;32866;50.160;14.768;2022-12-05T13:20:58;99575.59;;;5.08;100.00
46876;BME280;32866;50.160;14.768;2022-12-05T13:23:27;99564.72;;;5.12;100.00
46876;BME280;32866;50.160;14.768;2022-12-05T13:25:55;99556.94;;;5.10;100.00
46876;BME280;32866;50.160;14.768;2022-12-05T13:28:30;99568.59;;;5.07;100.00
46876;BME280;32866;50.160;14.768;2022-12-05T13:30:58;99553.81;;;5.15;100.00
46876;BME280;32866;50.160;14.768;2022-12-05T13:33:35;99548.47;;;4.97;100.00
46876;BME280;32866;50.160;14.768;2022-12-05T13:36:09;99551.44;;;5.21;100.00
46876;BME280;32866;50.160;14.768;2022-12-05T13:39:02;99568.97;;;5.13;100.00
46876;BME280;32866;50.160;14.768;2022-12-05T13:41:53;99560.94;;;4.91;100.00
46876;BME280;32866;50.160;14.768;2022-12-05T13:44:41;99562.84;;;4.91;100.00
46876;BME280;32866;50.160;14.768;2022-12-05T13:47:28;99586.13;;;4.95;100.00
46876;BME280;32866;50.160;14.768;2022-12-05T13:50:02;99582.31;;;4.78;100.00
46876;BME280;32866;50.160;14.768;2022-12-05T13:52:49;99579.16;;;4.87;100.00
46876;BME280;32866;50.160;14.768;2022-12-05T13:55:29;99593.16;;;4.82;100.00
46876;BME280;32866;50.160;14.768;2022-12-05T13:57:58;99587.38;;;4.73;100.00
46876;BME280;32866;50.160;14.768;2022-12-05T14:00:29;99583.88;;;4.72;100.00
46876;BME280;32866;50.160;14.768;2022-12-05T14:03:01;99585.38;;;4.91;100.00
46876;BME280;32866;50.160;14.768;2022-12-05T14:05:40;99592.69;;;5.01;100.00
46876;BME280;32866;50.160;14.768;2022-12-05T14:15:51;99565.25;;;4.71;100.00
46876;BME280;32866;50.160;14.768;2022-12-05T14:29:31;99582.34;;;4.68;100.00
46876;BME280;32866;50.160;14.768;2022-12-05T14:32:24;99590.09;;;4.73;100.00
46876;BME280;32866;50.160;14.768;2022-12-05T14:35:10;99590.84;;;4.73;100.00
46876;BME280;32866;50.160;14.768;2022-12-05T14:37:56;99589.28;;;4.83;100.00
46876;BME280;32866;50.160;14.768;2022-12-05T14:40:28;99576.13;;;4.71;100.00
46876;BME280;32866;50.160;14.768;2022-12-05T14:43:19;99584.25;;;4.78;100.00
46876;BME280;32866;50.160;14.768;2022-12-05T14:56:04;99578.88;;;4.60;100.00
46876;BME280;32866;50.160;14.768;2022-12-05T14:58:36;99563.81;;;4.34;100.00
46876;BME280;32866;50.160;14.768;2022-12-05T15:01:14;99575.81;;;4.54;100.00
46876;BME280;32866;50.160;14.768;2022-12-05T15:06:26;99556.88;;;4.18;100.00
46876;BME280;32866;50.160;14.768;2022-12-05T15:08:54;99581.25;;;4.43;100.00
46876;BME280;32866;50.160;14.768;2022-12-05T15:11:22;99553.38;;;4.25;100.00
46876;BME280;32866;50.160;14.768;2022-12-05T15:16:34;99578.91;;;4.45;100.00
46876;BME280;32866;50.160;14.768;2022-12-05T15:19:05;99563.47;;;4.21;100.00
46876;BME280;32866;50.160;14.768;2022-12-05T15:21:38;99577.78;;;4.36;100.00
46876;BME280;32866;50.160;14.768;2022-12-05T15:24:15;99594.03;;;4.46;100.00